createdAt,value
2018-08-30T00:01:38.641Z,17.10
2018-08-30T00:04:07.804Z,17.10
2018-08-30T00:06:37.017Z,17.10
2018-08-30T00:09:06.687Z,17.10
2018-08-30T00:11:36.054Z,17.10
2018-08-30T00:14:05.350Z,17.00
2018-08-30T00:16:34.557Z,17.00
2018-08-30T00:19:04.018Z,17.00
2018-08-30T00:21:33.058Z,16.90
2018-08-30T00:24:02.172Z,16.90
2018-08-30T00:26:31.301Z,16.90
2018-08-30T00:29:00.550Z,16.90
2018-08-30T00:31:29.664Z,16.90
2018-08-30T00:33:58.665Z,16.90
2018-08-30T00:36:27.687Z,16.80
2018-08-30T00:38:56.712Z,16.80
2018-08-30T00:41:25.884Z,16.80
2018-08-30T00:43:54.945Z,16.80
2018-08-30T00:46:24.068Z,16.80
2018-08-30T00:48:53.182Z,16.80
2018-08-30T00:51:22.216Z,16.80
2018-08-30T00:53:51.233Z,16.70
2018-08-30T00:56:20.230Z,16.70
2018-08-30T00:58:49.339Z,16.70
2018-08-30T01:01:18.872Z,16.60
2018-08-30T01:03:48.595Z,16.50
2018-08-30T01:06:18.291Z,16.50
2018-08-30T01:08:47.477Z,16.50
2018-08-30T01:11:16.998Z,16.50
2018-08-30T01:13:46.451Z,16.40
2018-08-30T01:16:15.694Z,16.50
2018-08-30T01:18:44.927Z,16.40
2018-08-30T01:21:14.267Z,16.50
2018-08-30T01:23:43.518Z,16.40
2018-08-30T01:26:12.917Z,16.40
2018-08-30T01:28:42.145Z,16.50
2018-08-30T01:31:11.335Z,16.40
2018-08-30T01:33:41.197Z,16.40
2018-08-30T01:36:11.219Z,16.40
2018-08-30T01:38:40.752Z,16.30
2018-08-30T01:41:10.419Z,16.30
2018-08-30T01:43:40.373Z,16.30
2018-08-30T01:46:09.945Z,16.20
2018-08-30T01:48:39.651Z,16.20
2018-08-30T01:51:09.790Z,16.10
2018-08-30T01:53:39.622Z,16.10
2018-08-30T01:56:09.398Z,16.10
2018-08-30T01:58:38.825Z,16.10
2018-08-30T02:01:08.095Z,16.10
2018-08-30T02:03:37.815Z,16.10
2018-08-30T02:06:07.534Z,16.10
2018-08-30T02:08:37.019Z,16.20
2018-08-30T02:11:06.879Z,16.30
2018-08-30T02:13:36.697Z,16.40
2018-08-30T02:16:06.362Z,16.40
2018-08-30T02:18:35.394Z,16.40
2018-08-30T02:21:04.438Z,16.40
2018-08-30T02:23:33.451Z,16.40
2018-08-30T02:26:02.491Z,16.40
2018-08-30T02:28:31.638Z,16.40
2018-08-30T02:31:00.749Z,16.40
2018-08-30T02:33:30.200Z,16.40
2018-08-30T02:35:59.394Z,16.30
2018-08-30T02:38:28.649Z,16.30
2018-08-30T02:40:57.734Z,16.30
2018-08-30T02:43:26.966Z,16.20
2018-08-30T02:45:56.178Z,16.20
2018-08-30T02:48:25.291Z,16.20
2018-08-30T02:50:54.608Z,16.20
2018-08-30T02:53:23.875Z,16.20
2018-08-30T02:55:52.905Z,16.10
2018-08-30T02:58:22.009Z,16.10
2018-08-30T03:00:51.108Z,16.10
2018-08-30T03:03:20.106Z,16.10
2018-08-30T03:05:49.528Z,16.00
2018-08-30T03:08:18.718Z,16.00
2018-08-30T03:10:47.862Z,16.00
2018-08-30T03:13:17.042Z,16.00
2018-08-30T03:15:46.088Z,16.00
2018-08-30T03:18:15.146Z,16.00
2018-08-30T03:20:44.322Z,16.00
2018-08-30T03:23:13.419Z,16.00
2018-08-30T03:25:42.820Z,16.00
2018-08-30T03:28:12.135Z,16.00
2018-08-30T03:30:41.377Z,16.00
2018-08-30T03:33:10.404Z,16.00
2018-08-30T03:35:39.502Z,16.00
2018-08-30T03:38:08.500Z,16.00
2018-08-30T03:40:37.591Z,15.90
2018-08-30T03:43:06.650Z,15.90
2018-08-30T03:45:35.883Z,15.90
2018-08-30T03:48:05.349Z,15.90
2018-08-30T03:50:34.390Z,15.90
2018-08-30T03:53:04.148Z,15.90
2018-08-30T03:55:33.456Z,15.90
2018-08-30T03:58:02.848Z,15.90
2018-08-30T04:00:31.822Z,15.90
2018-08-30T04:03:00.851Z,16.00
2018-08-30T04:05:30.036Z,16.00
2018-08-30T04:07:59.130Z,15.90
2018-08-30T04:10:28.354Z,16.00
2018-08-30T04:12:57.481Z,16.00
2018-08-30T04:15:26.584Z,16.00
2018-08-30T04:17:55.680Z,16.00
2018-08-30T04:20:25.981Z,16.00
2018-08-30T04:22:55.208Z,15.90
2018-08-30T04:25:24.456Z,16.00
2018-08-30T04:27:53.733Z,16.00
2018-08-30T04:30:22.860Z,16.00
2018-08-30T04:32:51.974Z,16.00
2018-08-30T04:35:21.402Z,16.00
2018-08-30T04:37:50.822Z,16.00
2018-08-30T04:40:20.989Z,16.00
2018-08-30T04:42:50.339Z,16.00
2018-08-30T04:45:19.653Z,16.00
2018-08-30T04:47:48.850Z,16.00
2018-08-30T04:50:18.014Z,16.00
2018-08-30T04:52:47.247Z,16.00
2018-08-30T04:55:16.500Z,16.00
2018-08-30T04:57:45.668Z,16.00
2018-08-30T05:00:14.868Z,16.00
2018-08-30T05:02:44.327Z,15.90
2018-08-30T05:05:13.458Z,16.00
2018-08-30T05:07:42.618Z,16.00
2018-08-30T05:10:11.889Z,16.00
2018-08-30T05:12:40.997Z,16.00
2018-08-30T05:15:10.235Z,16.00
2018-08-30T05:17:39.514Z,16.00
2018-08-30T05:20:08.837Z,16.00
2018-08-30T05:22:38.183Z,16.00
2018-08-30T05:25:07.423Z,16.10
2018-08-30T05:27:36.726Z,16.00
2018-08-30T05:30:05.985Z,16.00
2018-08-30T05:32:35.291Z,16.10
2018-08-30T05:35:04.795Z,16.10
2018-08-30T05:37:34.130Z,16.20
2018-08-30T05:40:03.350Z,16.20
2018-08-30T05:42:32.904Z,16.30
2018-08-30T05:45:02.425Z,16.30
2018-08-30T05:47:31.867Z,16.40
2018-08-30T05:50:00.986Z,16.60
2018-08-30T05:52:30.276Z,16.80
2018-08-30T05:54:59.553Z,17.10
2018-08-30T05:57:28.840Z,17.50
2018-08-30T05:59:58.340Z,17.80
2018-08-30T06:02:28.672Z,18.10
2018-08-30T06:04:58.507Z,18.30
2018-08-30T06:07:28.078Z,18.40
2018-08-30T06:09:57.076Z,18.70
2018-08-30T06:12:26.553Z,19.00
2018-08-30T06:14:57.288Z,19.20
2018-08-30T06:17:26.715Z,19.50
2018-08-30T06:19:55.916Z,19.80
2018-08-30T06:22:25.130Z,19.90
2018-08-30T06:24:54.168Z,20.00
2018-08-30T06:27:23.517Z,20.10
2018-08-30T06:29:53.526Z,20.20
2018-08-30T06:32:22.743Z,20.10
2018-08-30T06:34:52.103Z,20.00
2018-08-30T06:37:21.368Z,19.70
2018-08-30T06:39:50.629Z,19.40
2018-08-30T06:42:19.828Z,19.30
2018-08-30T06:44:49.039Z,19.20
2018-08-30T06:47:18.145Z,19.10
2018-08-30T06:49:47.165Z,19.00
2018-08-30T06:52:16.509Z,18.90
2018-08-30T06:54:45.643Z,19.00
2018-08-30T06:57:14.882Z,19.00
2018-08-30T06:59:44.310Z,19.00
2018-08-30T07:02:14.401Z,19.00
2018-08-30T07:04:44.256Z,19.00
2018-08-30T07:07:13.460Z,18.90
2018-08-30T07:09:42.775Z,18.90
2018-08-30T07:12:12.107Z,19.00
2018-08-30T07:14:41.630Z,19.10
2018-08-30T07:17:10.862Z,19.10
2018-08-30T07:19:40.020Z,19.30
2018-08-30T07:22:09.328Z,19.60
2018-08-30T07:24:38.708Z,19.90
2018-08-30T07:27:07.972Z,20.10
2018-08-30T07:29:37.183Z,20.20
2018-08-30T07:32:07.067Z,20.00
2018-08-30T07:34:36.303Z,19.80
2018-08-30T07:37:05.723Z,19.50
2018-08-30T07:39:35.122Z,19.30
2018-08-30T07:42:04.437Z,19.20
2018-08-30T07:44:33.727Z,19.20
2018-08-30T07:47:02.967Z,19.20
2018-08-30T07:49:32.439Z,19.40
2018-08-30T07:52:01.768Z,19.50
2018-08-30T07:54:31.011Z,19.60
2018-08-30T07:57:00.231Z,19.50
2018-08-30T07:59:29.594Z,19.50
2018-08-30T08:01:58.805Z,19.60
2018-08-30T08:04:28.180Z,19.60
2018-08-30T08:06:57.928Z,19.60
2018-08-30T08:09:27.020Z,19.80
2018-08-30T08:11:56.512Z,20.40
2018-08-30T08:14:25.996Z,22.10
2018-08-30T08:16:55.159Z,24.20
2018-08-30T08:19:24.436Z,26.00
2018-08-30T08:21:53.660Z,26.50
2018-08-30T08:24:22.944Z,26.70
2018-08-30T08:26:52.284Z,26.30
2018-08-30T08:29:21.484Z,25.70
2018-08-30T08:31:50.808Z,25.30
2018-08-30T08:34:20.153Z,25.10
2018-08-30T08:36:49.535Z,25.10
2018-08-30T08:39:18.784Z,25.50
2018-08-30T08:41:48.148Z,26.10
2018-08-30T08:44:17.777Z,27.30
2018-08-30T08:46:47.267Z,27.80
2018-08-30T08:49:16.586Z,27.90
2018-08-30T08:51:45.959Z,27.90
2018-08-30T08:54:15.460Z,28.00
2018-08-30T08:56:45.022Z,27.60
2018-08-30T08:59:15.344Z,26.90
2018-08-30T09:01:44.653Z,26.50
2018-08-30T09:04:13.868Z,26.70
2018-08-30T09:06:44.016Z,27.80
2018-08-30T09:09:13.474Z,29.50
2018-08-30T09:11:43.172Z,30.80
2018-08-30T09:14:12.347Z,31.00
2018-08-30T09:16:41.485Z,30.90
2018-08-30T09:19:10.577Z,30.90
2018-08-30T09:21:39.776Z,31.20
2018-08-30T09:24:09.682Z,31.60
2018-08-30T09:26:38.973Z,32.50
2018-08-30T09:29:08.367Z,32.80
2018-08-30T09:31:37.735Z,33.00
2018-08-30T09:34:07.106Z,33.40
2018-08-30T09:36:36.611Z,32.90
2018-08-30T09:39:07.713Z,32.00
2018-08-30T09:41:36.951Z,31.30
2018-08-30T09:44:06.275Z,30.20
2018-08-30T09:46:35.717Z,29.20
2018-08-30T09:49:05.346Z,28.10
2018-08-30T09:51:34.307Z,27.00
2018-08-30T09:54:03.360Z,26.00
2018-08-30T09:56:32.504Z,25.10
2018-08-30T09:59:01.729Z,24.40
2018-08-30T10:01:36.354Z,23.80
2018-08-30T10:04:05.673Z,23.40
2018-08-30T10:06:35.031Z,23.20
2018-08-30T10:09:05.546Z,22.90
2018-08-30T10:11:34.712Z,22.80
2018-08-30T10:14:04.864Z,22.60
2018-08-30T10:16:34.311Z,22.50
2018-08-30T10:19:03.471Z,22.50
2018-08-30T10:21:32.724Z,22.50
2018-08-30T10:24:02.137Z,22.70
2018-08-30T10:26:31.494Z,22.90
2018-08-30T10:29:00.911Z,23.20
2018-08-30T10:31:30.560Z,23.70
2018-08-30T10:34:00.552Z,24.40
2018-08-30T10:36:29.560Z,25.10
2018-08-30T10:38:58.719Z,25.50
2018-08-30T10:41:28.346Z,25.80
2018-08-30T10:43:57.484Z,26.10
2018-08-30T10:46:26.733Z,26.30
2018-08-30T10:48:56.729Z,26.50
2018-08-30T10:51:26.015Z,26.50
2018-08-30T10:53:55.030Z,26.20
2018-08-30T10:56:24.375Z,26.00
2018-08-30T10:58:53.466Z,26.00
2018-08-30T11:01:22.649Z,26.40
2018-08-30T11:03:52.337Z,27.10
2018-08-30T11:06:21.478Z,27.90
2018-08-30T11:08:50.523Z,28.40
2018-08-30T11:11:19.664Z,28.30
2018-08-30T11:13:49.298Z,28.30
2018-08-30T11:16:20.456Z,28.70
2018-08-30T11:18:49.602Z,28.90
2018-08-30T11:21:18.719Z,29.00
2018-08-30T11:23:48.013Z,29.60
2018-08-30T11:26:17.199Z,30.20
2018-08-30T11:28:46.542Z,30.50
2018-08-30T11:31:15.758Z,30.40
2018-08-30T11:33:44.811Z,30.10
2018-08-30T11:36:13.976Z,29.80
2018-08-30T11:38:43.873Z,29.30
2018-08-30T11:41:13.021Z,28.80
2018-08-30T11:43:42.095Z,28.00
2018-08-30T11:46:11.119Z,27.10
2018-08-30T11:48:40.282Z,26.40
2018-08-30T11:51:09.556Z,25.60
2018-08-30T11:53:38.682Z,25.10
2018-08-30T11:56:07.862Z,25.30
2018-08-30T11:58:37.035Z,26.00
2018-08-30T12:01:06.168Z,26.50
2018-08-30T12:03:35.582Z,27.10
2018-08-30T12:06:04.703Z,27.80
2018-08-30T12:08:33.657Z,28.50
2018-08-30T12:11:02.991Z,29.00
2018-08-30T12:13:31.725Z,29.40
2018-08-30T12:16:01.149Z,29.90
2018-08-30T12:18:30.297Z,30.00
2018-08-30T12:20:59.470Z,30.20
2018-08-30T12:23:28.650Z,30.20
2018-08-30T12:25:57.628Z,30.20
2018-08-30T12:28:26.723Z,30.10
2018-08-30T12:30:55.768Z,30.20
2018-08-30T12:33:25.102Z,30.40
2018-08-30T12:35:54.278Z,30.50
2018-08-30T12:38:23.355Z,30.60
2018-08-30T12:40:52.516Z,30.50
2018-08-30T12:43:21.628Z,30.40
2018-08-30T12:45:50.691Z,30.50
2018-08-30T12:48:20.065Z,30.20
2018-08-30T12:50:49.463Z,29.70
2018-08-30T12:53:18.506Z,29.10
2018-08-30T12:55:47.629Z,28.40
2018-08-30T12:58:16.792Z,27.70
2018-08-30T13:00:46.761Z,27.30
2018-08-30T13:03:16.292Z,26.90
2018-08-30T13:05:46.205Z,26.70
2018-08-30T13:08:16.134Z,26.40
2018-08-30T13:10:45.370Z,26.20
2018-08-30T13:13:14.569Z,26.00
2018-08-30T13:15:43.686Z,25.80
2018-08-30T13:18:12.757Z,25.60
2018-08-30T13:20:42.081Z,25.40
2018-08-30T13:23:11.500Z,25.20
2018-08-30T13:25:41.021Z,25.10
2018-08-30T13:28:10.212Z,25.10
2018-08-30T13:30:39.729Z,25.10
2018-08-30T13:33:08.970Z,25.30
2018-08-30T13:35:37.686Z,25.50
2018-08-30T13:41:39.258Z,25.90
2018-08-30T13:44:09.796Z,26.40
2018-08-30T13:46:39.596Z,26.60
2018-08-30T13:49:09.694Z,26.70
2018-08-30T13:51:38.920Z,26.60
2018-08-30T13:54:08.308Z,26.60
2018-08-30T13:56:37.448Z,26.40
2018-08-30T13:59:06.765Z,26.40
2018-08-30T14:01:36.308Z,26.30
2018-08-30T14:04:05.569Z,25.90
2018-08-30T14:06:35.627Z,25.70
2018-08-30T14:09:05.414Z,25.60
2018-08-30T14:11:34.701Z,25.40
2018-08-30T14:14:03.726Z,25.40
2018-08-30T14:16:32.454Z,25.40
2018-08-30T14:19:02.056Z,25.50
2018-08-30T14:21:31.325Z,25.60
2018-08-30T14:24:00.433Z,25.60
2018-08-30T14:26:29.762Z,25.80
2018-08-30T14:28:58.913Z,25.80
2018-08-30T14:31:28.018Z,25.70
2018-08-30T14:33:57.441Z,25.60
2018-08-30T14:36:26.481Z,25.60
2018-08-30T14:38:55.652Z,25.50
2018-08-30T14:41:24.773Z,25.30
2018-08-30T14:43:53.984Z,25.10
2018-08-30T14:46:23.248Z,25.00
2018-08-30T14:48:52.261Z,24.80
2018-08-30T14:51:21.510Z,24.60
2018-08-30T14:53:52.181Z,24.50
2018-08-30T14:56:20.096Z,24.30
2018-08-30T14:58:49.277Z,24.20
2018-08-30T15:01:18.895Z,24.30
2018-08-30T15:03:48.317Z,24.30
2018-08-30T15:06:17.507Z,24.30
2018-08-30T15:08:46.693Z,24.30
2018-08-30T15:11:15.910Z,24.30
2018-08-30T15:13:44.987Z,24.40
2018-08-30T15:16:14.080Z,24.50
2018-08-30T15:18:43.169Z,24.60
2018-08-30T15:21:12.313Z,24.60
2018-08-30T15:23:41.552Z,24.50
2018-08-30T15:26:10.610Z,24.30
2018-08-30T15:28:42.443Z,24.30
2018-08-30T15:31:11.692Z,24.20
2018-08-30T15:33:40.667Z,23.80
2018-08-30T15:36:09.800Z,23.60
2018-08-30T15:38:38.909Z,23.50
2018-08-30T15:41:08.354Z,23.30
2018-08-30T15:43:37.912Z,23.20
2018-08-30T15:46:07.162Z,23.10
2018-08-30T15:48:36.499Z,23.10
2018-08-30T15:51:05.757Z,23.00
2018-08-30T15:53:35.021Z,22.90
2018-08-30T15:56:04.217Z,22.80
2018-08-30T15:58:33.671Z,22.60
2018-08-30T16:01:02.794Z,22.40
2018-08-30T16:03:32.016Z,22.30
2018-08-30T16:06:01.220Z,22.20
2018-08-30T16:08:30.531Z,22.10
2018-08-30T16:10:59.846Z,22.00
2018-08-30T16:13:29.380Z,21.80
2018-08-30T16:15:59.342Z,21.70
2018-08-30T16:18:28.619Z,21.70
2018-08-30T16:20:58.066Z,21.60
2018-08-30T16:23:29.181Z,21.50
2018-08-30T16:25:58.423Z,21.50
2018-08-30T16:28:28.591Z,21.50
2018-08-30T16:30:58.027Z,21.50
2018-08-30T16:33:27.665Z,21.50
2018-08-30T16:35:56.872Z,21.60
2018-08-30T16:38:26.184Z,21.50
2018-08-30T16:40:55.562Z,21.50
2018-08-30T16:43:25.040Z,21.50
2018-08-30T16:45:54.641Z,21.40
2018-08-30T16:48:24.064Z,21.30
2018-08-30T16:50:53.358Z,21.20
2018-08-30T16:53:23.197Z,21.10
2018-08-30T16:55:52.280Z,21.00
2018-08-30T16:58:21.415Z,20.90
2018-08-30T17:00:50.783Z,20.80
2018-08-30T17:03:21.008Z,20.70
2018-08-30T17:05:50.345Z,20.70
2018-08-30T17:08:19.967Z,20.50
2018-08-30T17:10:49.298Z,20.50
2018-08-30T17:13:18.880Z,20.40
2018-08-30T17:15:49.084Z,20.30
2018-08-30T17:18:18.168Z,20.20
2018-08-30T17:20:50.238Z,20.20
2018-08-30T17:23:19.462Z,20.00
2018-08-30T17:25:49.043Z,19.90
2018-08-30T17:28:18.270Z,19.80
2018-08-30T17:30:47.636Z,19.70
2018-08-30T17:33:16.956Z,19.60
2018-08-30T17:35:46.132Z,19.50
2018-08-30T17:38:16.158Z,19.30
2018-08-30T17:40:45.565Z,19.20
2018-08-30T17:43:15.074Z,19.00
2018-08-30T17:45:44.443Z,18.90
2018-08-30T17:48:13.890Z,18.70
2018-08-30T17:50:43.262Z,18.60
2018-08-30T17:53:12.582Z,18.40
2018-08-30T17:55:42.027Z,18.30
2018-08-30T17:58:11.487Z,18.20
2018-08-30T18:00:40.816Z,18.00
2018-08-30T18:03:10.123Z,17.90
2018-08-30T18:05:39.235Z,17.70
2018-08-30T18:08:08.462Z,17.50
2018-08-30T18:10:37.572Z,17.40
2018-08-30T18:13:06.722Z,17.30
2018-08-30T18:15:35.971Z,17.10
2018-08-30T18:18:05.454Z,17.00
2018-08-30T18:20:34.811Z,16.80
2018-08-30T18:23:04.173Z,16.70
2018-08-30T18:25:33.593Z,16.60
2018-08-30T18:28:02.842Z,16.50
2018-08-30T18:30:32.130Z,16.30
2018-08-30T18:33:01.427Z,16.20
2018-08-30T18:35:30.636Z,16.10
2018-08-30T18:37:59.887Z,15.90
2018-08-30T18:40:29.205Z,15.80
2018-08-30T18:42:58.352Z,15.70
2018-08-30T18:47:56.615Z,15.50
2018-08-30T18:50:26.017Z,15.40
2018-08-30T18:52:55.365Z,15.30
2018-08-30T18:55:24.779Z,15.30
2018-08-30T18:57:54.054Z,15.20
2018-08-30T19:00:23.367Z,15.10
2018-08-30T19:02:53.385Z,15.00
2018-08-30T19:05:22.677Z,14.90
2018-08-30T19:07:51.823Z,14.80
2018-08-30T19:10:21.076Z,14.80
2018-08-30T19:12:50.527Z,14.70
2018-08-30T19:15:25.130Z,14.60
2018-08-30T19:17:59.781Z,14.60
2018-08-30T19:20:29.066Z,14.50
2018-08-30T19:22:58.526Z,14.40
2018-08-30T19:25:29.279Z,14.30
2018-08-30T19:27:59.168Z,14.20
2018-08-30T19:30:30.109Z,14.20
2018-08-30T19:32:59.794Z,14.10
2018-08-30T19:35:34.580Z,14.10
2018-08-30T19:38:03.754Z,14.00
2018-08-30T19:40:38.367Z,13.90
2018-08-30T19:43:07.724Z,13.80
2018-08-30T19:45:37.138Z,13.80
2018-08-30T19:48:06.340Z,13.70
2018-08-30T19:50:35.436Z,13.60
2018-08-30T19:53:04.556Z,13.50
2018-08-30T19:55:33.951Z,13.50
2018-08-30T19:58:03.120Z,13.40
2018-08-30T20:00:32.288Z,13.40
2018-08-30T20:03:01.465Z,13.30
2018-08-30T20:05:30.742Z,13.30
2018-08-30T20:07:59.885Z,13.20
2018-08-30T20:10:29.064Z,13.20
2018-08-30T20:12:58.245Z,13.20
2018-08-30T20:15:27.440Z,13.20
2018-08-30T20:17:56.746Z,13.10
2018-08-30T20:20:26.168Z,13.10
2018-08-30T20:22:55.409Z,13.10
2018-08-30T20:25:24.825Z,13.10
2018-08-30T20:27:54.026Z,13.10
2018-08-30T20:30:23.335Z,13.00
2018-08-30T20:32:52.620Z,13.00
2018-08-30T20:35:21.730Z,12.90
2018-08-30T20:37:50.900Z,12.90
2018-08-30T20:40:20.178Z,12.90
2018-08-30T20:42:49.455Z,12.90
2018-08-30T20:45:18.588Z,12.90
2018-08-30T20:47:47.954Z,12.90
2018-08-30T20:50:17.590Z,12.80
2018-08-30T20:52:47.062Z,12.70
2018-08-30T20:55:16.446Z,12.60
2018-08-30T20:57:45.707Z,12.60
2018-08-30T21:00:15.430Z,12.80
2018-08-30T21:02:44.606Z,13.00
2018-08-30T21:05:13.857Z,13.10
2018-08-30T21:07:43.103Z,13.20
2018-08-30T21:10:12.248Z,13.10
2018-08-30T21:12:41.546Z,13.10
2018-08-30T21:15:10.649Z,13.00
2018-08-30T21:17:39.796Z,13.00
2018-08-30T21:20:09.780Z,12.90
2018-08-30T21:22:38.779Z,12.80
2018-08-30T21:25:08.686Z,12.80
2018-08-30T21:27:38.205Z,12.90
2018-08-30T21:30:07.952Z,12.90
2018-08-30T21:32:37.084Z,12.80
2018-08-30T21:35:06.430Z,12.80
2018-08-30T21:37:35.589Z,12.70
2018-08-30T21:40:04.693Z,12.60
2018-08-30T21:42:33.837Z,12.70
2018-08-30T21:45:04.005Z,12.70
2018-08-30T21:47:33.207Z,12.60
2018-08-30T21:50:03.307Z,12.50
2018-08-30T21:52:32.816Z,12.40
2018-08-30T21:55:02.435Z,12.30
2018-08-30T21:57:31.616Z,12.20
2018-08-30T22:00:00.854Z,12.20
2018-08-30T22:02:29.882Z,12.10
2018-08-30T22:04:59.196Z,12.20
2018-08-30T22:07:28.364Z,12.10
2018-08-30T22:09:57.762Z,12.10
2018-08-30T22:12:26.987Z,12.00
2018-08-30T22:14:56.127Z,11.90
2018-08-30T22:17:25.508Z,11.90
2018-08-30T22:19:54.646Z,11.80
2018-08-30T22:22:23.976Z,11.80
2018-08-30T22:25:55.730Z,11.70
2018-08-30T22:28:25.062Z,11.70
2018-08-30T22:30:54.331Z,11.70
2018-08-30T22:33:23.544Z,11.80
2018-08-30T22:35:52.688Z,11.80
2018-08-30T22:38:21.847Z,11.90
2018-08-30T22:40:51.096Z,11.90
2018-08-30T22:43:20.285Z,12.00
2018-08-30T22:45:49.417Z,12.00
2018-08-30T22:48:18.678Z,12.10
2018-08-30T22:50:47.914Z,12.10
2018-08-30T22:53:17.002Z,12.10
2018-08-30T22:55:46.291Z,12.10
2018-08-30T22:58:15.480Z,12.10
2018-08-30T23:00:44.706Z,12.20
2018-08-30T23:03:13.979Z,12.20
2018-08-30T23:05:43.224Z,12.30
2018-08-30T23:08:12.475Z,12.30
2018-08-30T23:10:41.755Z,12.40
2018-08-30T23:13:10.838Z,12.40
2018-08-30T23:15:39.896Z,12.40
2018-08-30T23:18:09.247Z,12.40
2018-08-30T23:20:38.573Z,12.30
2018-08-30T23:23:07.738Z,12.40
2018-08-30T23:25:37.050Z,12.30
2018-08-30T23:28:06.375Z,12.30
2018-08-30T23:30:35.690Z,12.20
2018-08-30T23:33:04.988Z,12.10
2018-08-30T23:35:34.229Z,12.00
2018-08-30T23:38:03.491Z,11.90
2018-08-30T23:40:32.667Z,11.80
2018-08-30T23:43:01.916Z,11.70
2018-08-30T23:45:31.304Z,11.60
2018-08-30T23:48:00.488Z,11.60
2018-08-30T23:50:29.533Z,11.50
2018-08-30T23:52:58.799Z,11.40
2018-08-30T23:55:27.919Z,11.30
2018-08-30T23:58:08.435Z,11.20
